Observation data for Childress on 11/17/2019      Previous  Date       Current Mesonet Observations  Soil Data  Daily Summary Page  Observations in Plain Language
KCXS 170600Z 14008KT 07/01 A2996 RMK A01 T00730009  RH  065%=      5-min Rain = 0
KCXS 170605Z 14007KT 07/01 A2996 RMK A01 T00740010  RH  064%=      5-min Rain = 0
KCXS 170610Z 14008KT 07/01 A2996 RMK A01 T00720009  RH  065%=      5-min Rain = 0
KCXS 170615Z 14008KT 07/01 A2996 RMK A01 T00690009  RH  067%=      5-min Rain = 0
KCXS 170620Z 14008KT 07/01 A2996 RMK A01 T00650010  RH  069%=      5-min Rain = 0
KCXS 170625Z 14007KT 06/01 A2996 RMK A01 T00630010  RH  070%=      5-min Rain = 0
KCXS 170630Z 13008KT 06/01 A2996 RMK A01 T00630009  RH  070%=      5-min Rain = 0
KCXS 170635Z 13008KT 06/01 A2996 RMK A01 T00630009  RH  069%=      5-min Rain = 0
KCXS 170640Z 13008KT 07/01 A2996 RMK A01 T00650010  RH  069%=      5-min Rain = 0
KCXS 170645Z 14008KT 07/01 A2996 RMK A01 T00660010  RH  068%=      5-min Rain = 0
KCXS 170650Z 14008KT 07/01 A2996 RMK A01 T00670010  RH  067%=      5-min Rain = 0
KCXS 170655Z 13007KT 07/01 A2995 RMK A01 T00660010  RH  068%=      5-min Rain = 0
KCXS 170700Z 14008KT 07/01 A2995 RMK A01 T00650010  RH  069%=      5-min Rain = 0
KCXS 170705Z 14008KT 07/01 A2995 RMK A01 T00670009  RH  068%=      5-min Rain = 0
KCXS 170710Z 14008KT 07/01 A2995 RMK A01 T00690009  RH  066%=      5-min Rain = 0
KCXS 170715Z 14007KT 07/01 A2995 RMK A01 T00700008  RH  066%=      5-min Rain = 0
KCXS 170720Z 14007KT 07/01 A2995 RMK A01 T00700008  RH  065%=      5-min Rain = 0
KCXS 170725Z 15008KT 07/01 A2995 RMK A01 T00700008  RH  065%=      5-min Rain = 0
KCXS 170730Z 15008KT 07/01 A2995 RMK A01 T00700007  RH  065%=      5-min Rain = 0
KCXS 170735Z 14008KT 07/01 A2995 RMK A01 T00690007  RH  066%=      5-min Rain = 0
KCXS 170740Z 14008KT 07/01 A2995 RMK A01 T00680007  RH  066%=      5-min Rain = 0
KCXS 170745Z 15007KT 07/01 A2995 RMK A01 T00680006  RH  065%=      5-min Rain = 0
KCXS 170750Z 15007KT 07/01 A2995 RMK A01 T00670006  RH  066%=      5-min Rain = 0
KCXS 170755Z 14008KT 07/01 A2995 RMK A01 T00660006  RH  066%=      5-min Rain = 0
KCXS 170800Z 15007KT 07/01 A2995 RMK A01 T00660006  RH  066%=      5-min Rain = 0
KCXS 170805Z 15006KT 07/01 A2995 RMK A01 T00660006  RH  066%=      5-min Rain = 0
KCXS 170810Z 15006KT 07/01 A2995 RMK A01 T00660006  RH  066%=      5-min Rain = 0
KCXS 170815Z 16007KT 07/01 A2995 RMK A01 T00650006  RH  067%=      5-min Rain = 0
KCXS 170820Z 17006KT 07/01 A2995 RMK A01 T00660006  RH  066%=      5-min Rain = 0
KCXS 170825Z 17004KT 07/01 A2995 RMK A01 T00650006  RH  067%=      5-min Rain = 0
KCXS 170830Z 34003KT 07/01 A2996 RMK A01 T00650010  RH  069%=      5-min Rain = 0
KCXS 170835Z 34004KT 07/01 A2996 RMK A01 T00660013  RH  070%=      5-min Rain = 0
KCXS 170840Z 34004KT 06/01 A2996 RMK A01 T00640013  RH  071%=      5-min Rain = 0
KCXS 170845Z 34007KT 06/01 A2997 RMK A01 T00580010  RH  072%=      5-min Rain = 0
KCXS 170850Z 34007KT 05/01 A2997 RMK A01 T00540008  RH  073%=      5-min Rain = 0
KCXS 170855Z 34007KT 05/01 A2997 RMK A01 T00520006  RH  073%=      5-min Rain = 0
KCXS 170900Z 34006KT 05/00 A2997 RMK A01 T00510004  RH  073%=      5-min Rain = 0
KCXS 170905Z 33006KT 05/00 A2997 RMK A01 T00500004  RH  073%=      5-min Rain = 0
KCXS 170910Z 33006KT 05/01 A2997 RMK A01 T00500005  RH  073%=      5-min Rain = 0
KCXS 170915Z 32007KT 05/01 A2997 RMK A01 T00510006  RH  074%=      5-min Rain = 0
KCXS 170920Z 33008KT 05/01 A2998 RMK A01 T00520007  RH  074%=      5-min Rain = 0
KCXS 170925Z 33009KT 05/01 A2998 RMK A01 T00520007  RH  074%=      5-min Rain = 0
KCXS 170930Z 33009KT 05/01 A2998 RMK A01 T00520007  RH  073%=      5-min Rain = 0
KCXS 170935Z 34007KT 05/01 A2998 RMK A01 T00510006  RH  074%=      5-min Rain = 0
KCXS 170940Z 34007KT 05/01 A2998 RMK A01 T00510006  RH  073%=      5-min Rain = 0
KCXS 170945Z 34007KT 05/01 A2998 RMK A01 T00520006  RH  073%=      5-min Rain = 0
KCXS 170950Z 34008KT 05/01 A2998 RMK A01 T00520007  RH  073%=      5-min Rain = 0
KCXS 170955Z 34009KT 05/01 A2999 RMK A01 T00530007  RH  073%=      5-min Rain = 0
KCXS 171000Z 34009KT 05/01 A2999 RMK A01 T00540007  RH  073%=      5-min Rain = 0
KCXS 171005Z 34010KT 05/01 A2999 RMK A01 T00540007  RH  072%=      5-min Rain = 0
KCXS 171010Z 34011KT 06/01 A2999 RMK A01 T00560007  RH  072%=      5-min Rain = 0
KCXS 171015Z 35010KT 06/01 A30 RMK A01 T00570007  RH  071%=      5-min Rain = 0
KCXS 171020Z 35009KT 06/01 A30 RMK A01 T00570008  RH  072%=      5-min Rain = 0
KCXS 171025Z 34009KT 06/01 A3001 RMK A01 T00570008  RH  072%=      5-min Rain = 0
KCXS 171030Z 34009KT 06/01 A3001 RMK A01 T00570008  RH  072%=      5-min Rain = 0
KCXS 171035Z 35009KT 06/01 A3001 RMK A01 T00570008  RH  072%=      5-min Rain = 0
KCXS 171040Z 35010KT 06/01 A3001 RMK A01 T00590009  RH  071%=      5-min Rain = 0
KCXS 171045Z 35010KT 06/01 A30 RMK A01 T00620009  RH  070%=      5-min Rain = 0
KCXS 171050Z 34012KT 06/01 A3002 RMK A01 T00630009  RH  069%=      5-min Rain = 0
KCXS 171055Z 35012KT 07/01 A3002 RMK A01 T00660009  RH  068%=      5-min Rain = 0
KCXS 171100Z 35012KT 07/01 A3002 RMK A01 T00680009  RH  067%=      5-min Rain = 0
KCXS 171105Z 35011KT 07/01 A3002 RMK A01 T00690009  RH  066%=      5-min Rain = 0
KCXS 171110Z 35012KT 07/01 A3002 RMK A01 T00720009  RH  065%=      5-min Rain = 0
KCXS 171115Z 36012KT 08/01 A3002 RMK A01 T00760010  RH  064%=      5-min Rain = 0
KCXS 171120Z 35012G17KT 08/01 A3002 RMK A01 T00800010  RH  062%=      5-min Rain = 0
KCXS 171125Z 35011KT 08/01 A3003 RMK A01 T00790010  RH  062%=      5-min Rain = 0
KCXS 171130Z 36010KT 08/01 A3003 RMK A01 T00780009  RH  063%=      5-min Rain = 0
KCXS 171135Z 35011KT 08/01 A3003 RMK A01 T00780009  RH  063%=      5-min Rain = 0
KCXS 171140Z 35010KT 08/01 A3003 RMK A01 T00770009  RH  063%=      5-min Rain = 0
KCXS 171145Z 35010KT 08/01 A3003 RMK A01 T00750008  RH  064%=      5-min Rain = 0
KCXS 171150Z 35011KT 07/01 A3004 RMK A01 T00720008  RH  064%=      5-min Rain = 0
KCXS 171155Z 35011KT 08/01 A3004 RMK A01 T00750008  RH  063%=      5-min Rain = 0
KCXS 171200Z 35012KT 08/01 A3004 RMK A01 T00780008  RH  062%=      5-min Rain = 0
KCXS 171205Z 35012KT 08/01 A3005 RMK A01 T00790008  RH  062%=      5-min Rain = 0
KCXS 171210Z 35012KT 08/01 A3005 RMK A01 T00790008  RH  061%=      5-min Rain = 0
KCXS 171215Z 35013KT 08/01 A3006 RMK A01 T00820008  RH  061%=      5-min Rain = 0
KCXS 171220Z 35013KT 08/01 A3006 RMK A01 T00830009  RH  060%=      5-min Rain = 0
KCXS 171225Z 35014KT 08/01 A3006 RMK A01 T00830009  RH  060%=      5-min Rain = 0
KCXS 171230Z 35014KT 08/01 A3007 RMK A01 T00830009  RH  060%=      5-min Rain = 0
KCXS 171235Z 35015KT 08/01 A3007 RMK A01 T00840009  RH  060%=      5-min Rain = 0
KCXS 171240Z 35015G20KT 08/01 A3007 RMK A01 T00840009  RH  060%=      5-min Rain = 0
KCXS 171245Z 35015KT 08/01 A3008 RMK A01 T00840010  RH  060%=      5-min Rain = 0
KCXS 171250Z 35015KT 08/01 A3008 RMK A01 T00840010  RH  060%=      5-min Rain = 0
KCXS 171255Z 35014KT 08/01 A3008 RMK A01 T00830010  RH  061%=      5-min Rain = 0
KCXS 171300Z 35013G18KT 08/01 A3009 RMK A01 T00830010  RH  061%=      5-min Rain = 0
KCXS 171305Z 35014KT 08/01 A3009 RMK A01 T00830010  RH  061%=      5-min Rain = 0
KCXS 171310Z 35012KT 08/01 A301 RMK A01 T00830011  RH  061%=      5-min Rain = 0
KCXS 171315Z 35011KT 08/01 A301 RMK A01 T00830011  RH  061%=      5-min Rain = 0
KCXS 171320Z 35010G17KT 08/01 A301 RMK A01 T00820012  RH  062%=      5-min Rain = 0
KCXS 171325Z 35012G17KT 08/01 A3009 RMK A01 T00840013  RH  062%=      5-min Rain = 0
KCXS 171330Z 35013G18KT 09/01 A301 RMK A01 T00850013  RH  062%=      5-min Rain = 0
KCXS 171335Z 35014G19KT 09/01 A301 RMK A01 T00850013  RH  061%=      5-min Rain = 0
KCXS 171340Z 35015G20KT 09/01 A301 RMK A01 T00860014  RH  061%=      5-min Rain = 0
KCXS 171345Z 35014KT 09/01 A3011 RMK A01 T00860014  RH  061%=      5-min Rain = 0
KCXS 171350Z 35014KT 09/02 A3011 RMK A01 T00870015  RH  061%=      5-min Rain = 0
KCXS 171355Z 35015G21KT 09/02 A3011 RMK A01 T00880015  RH  061%=      5-min Rain = 0
KCXS 171400Z 35016G21KT 09/02 A3011 RMK A01 T00900016  RH  061%=      5-min Rain = 0
KCXS 171405Z 35017G23KT 09/02 A3012 RMK A01 T00920017  RH  060%=      5-min Rain = 0
KCXS 171410Z 34017KT 09/02 A3012 RMK A01 T00930018  RH  060%=      5-min Rain = 0
KCXS 171415Z 35015G20KT 10/02 A3012 RMK A01 T00950019  RH  060%=      5-min Rain = 0
KCXS 171420Z 35016G23KT 10/02 A3013 RMK A01 T00960019  RH  059%=      5-min Rain = 0
KCXS 171425Z 35015G20KT 10/02 A3013 RMK A01 T00980019  RH  059%=      5-min Rain = 0
KCXS 171430Z 34017G22KT 10/02 A3013 RMK A01 T00990019  RH  058%=      5-min Rain = 0
KCXS 171435Z 35017G22KT 10/02 A3013 RMK A01 T01010019  RH  057%=      5-min Rain = 0
KCXS 171440Z 35016G22KT 10/02 A3013 RMK A01 T01020019  RH  057%=      5-min Rain = 0
KCXS 171445Z 35019KT 10/02 A3013 RMK A01 T01030018  RH  057%=      5-min Rain = 0
KCXS 171450Z 35017G23KT 10/02 A3013 RMK A01 T01040019  RH  056%=      5-min Rain = 0
KCXS 171455Z 35018G23KT 11/02 A3013 RMK A01 T01060018  RH  056%=      5-min Rain = 0
KCXS 171500Z 35017G22KT 11/02 A3013 RMK A01 T01060018  RH  055%=      5-min Rain = 0
KCXS 171505Z 36016G22KT 11/02 A3013 RMK A01 T01080019  RH  055%=      5-min Rain = 0
KCXS 171510Z 36017G23KT 11/02 A3013 RMK A01 T01110019  RH  054%=      5-min Rain = 0
KCXS 171515Z 36017G24KT 11/02 A3014 RMK A01 T01110018  RH  054%=      5-min Rain = 0
KCXS 171520Z 36017G23KT 11/02 A3014 RMK A01 T01140019  RH  053%=      5-min Rain = 0
KCXS 171525Z 36018G27KT 12/02 A3014 RMK A01 T01150018  RH  052%=      5-min Rain = 0
KCXS 171530Z 00018G26KT 12/02 A3014 RMK A01 T01170018  RH  052%=      5-min Rain = 0
KCXS 171535Z 00019G28KT 12/02 A3014 RMK A01 T01180019  RH  051%=      5-min Rain = 0
KCXS 171540Z 36018G23KT 12/02 A3013 RMK A01 T01200020  RH  051%=      5-min Rain = 0
KCXS 171545Z 00021G26KT 12/02 A3013 RMK A01 T01220019  RH  050%=      5-min Rain = 0
KCXS 171550Z 00021G28KT 12/02 A3013 RMK A01 T01210019  RH  050%=      5-min Rain = 0
KCXS 171555Z 01020G28KT 12/02 A3013 RMK A01 T01220019  RH  050%=      5-min Rain = 0
KCXS 171600Z 01019G26KT 13/02 A3013 RMK A01 T01250020  RH  049%=      5-min Rain = 0
KCXS 171605Z 01016G23KT 13/02 A3013 RMK A01 T01270021  RH  049%=      5-min Rain = 0
KCXS 171610Z 00017G24KT 13/02 A3013 RMK A01 T01300021  RH  048%=      5-min Rain = 0
KCXS 171615Z 00019G27KT 13/02 A3013 RMK A01 T01280020  RH  049%=      5-min Rain = 0
KCXS 171620Z 00017G23KT 13/02 A3013 RMK A01 T01310021  RH  048%=      5-min Rain = 0
KCXS 171625Z 36016G21KT 13/02 A3013 RMK A01 T01330022  RH  048%=      5-min Rain = 0
KCXS 171630Z 00016G23KT 14/02 A3013 RMK A01 T01350022  RH  047%=      5-min Rain = 0
KCXS 171635Z 00017G22KT 14/02 A3013 RMK A01 T01350021  RH  047%=      5-min Rain = 0
KCXS 171640Z 00015KT 14/02 A3013 RMK A01 T01360022  RH  047%=      5-min Rain = 0
KCXS 171645Z 35015G21KT 14/02 A3014 RMK A01 T01390022  RH  046%=      5-min Rain = 0
KCXS 171650Z 00015KT 14/02 A3014 RMK A01 T01400022  RH  045%=      5-min Rain = 0
KCXS 171655Z 36014KT 14/02 A3014 RMK A01 T01420022  RH  045%=      5-min Rain = 0
KCXS 171700Z 00016G22KT 14/02 A3014 RMK A01 T01420022  RH  045%=      5-min Rain = 0
KCXS 171705Z 36017G22KT 14/02 A3014 RMK A01 T01420021  RH  045%=      5-min Rain = 0
KCXS 171710Z 01015KT 14/02 A3013 RMK A01 T01430021  RH  044%=      5-min Rain = 0
KCXS 171715Z 36015G20KT 15/02 A3013 RMK A01 T01450021  RH  044%=      5-min Rain = 0
KCXS 171720Z 35015G21KT 15/02 A3014 RMK A01 T01450021  RH  044%=      5-min Rain = 0
KCXS 171725Z 36015KT 15/02 A3014 RMK A01 T01480022  RH  043%=      5-min Rain = 0
KCXS 171730Z 35015G23KT 15/02 A3014 RMK A01 T01470021  RH  043%=      5-min Rain = 0
KCXS 171735Z 00013KT 15/02 A3013 RMK A01 T01500022  RH  043%=      5-min Rain = 0
KCXS 171740Z 36012KT 16/02 A3013 RMK A01 T01550022  RH  041%=      5-min Rain = 0
KCXS 171745Z 34014G20KT 15/02 A3013 RMK A01 T01540021  RH  041%=      5-min Rain = 0
KCXS 171750Z 34016G21KT 15/02 A3013 RMK A01 T01520021  RH  042%=      5-min Rain = 0
KCXS 171755Z 35013G19KT 16/02 A3013 RMK A01 T01550021  RH  041%=      5-min Rain = 0
KCXS 171800Z 35016G22KT 16/02 A3013 RMK A01 T01580021  RH  040%=      5-min Rain = 0
KCXS 171805Z 35017KT 15/02 A3013 RMK A01 T01540020  RH  041%=      5-min Rain = 0
KCXS 171810Z 36015G23KT 16/02 A3013 RMK A01 T01570021  RH  041%=      5-min Rain = 0
KCXS 171815Z 00012G20KT 16/02 A3013 RMK A01 T01620021  RH  039%=      5-min Rain = 0
KCXS 171820Z 35012G17KT 17/02 A3013 RMK A01 T01660022  RH  039%=      5-min Rain = 0
KCXS 171825Z 36014G19KT 16/02 A3013 RMK A01 T01630021  RH  039%=      5-min Rain = 0
KCXS 171830Z 35014G19KT 16/02 A3012 RMK A01 T01620021  RH  039%=      5-min Rain = 0
KCXS 171835Z 35016KT 16/02 A3012 RMK A01 T01630021  RH  039%=      5-min Rain = 0
KCXS 171840Z 36015KT 16/02 A3012 RMK A01 T01620021  RH  039%=      5-min Rain = 0
KCXS 171845Z 36012G18KT 17/02 A3011 RMK A01 T01670022  RH  038%=      5-min Rain = 0
KCXS 171850Z 34013G18KT 17/02 A3011 RMK A01 T01680021  RH  038%=      5-min Rain = 0
KCXS 171855Z 35012G18KT 17/02 A3011 RMK A01 T01680021  RH  038%=      5-min Rain = 0
KCXS 171900Z 35013KT 17/02 A3011 RMK A01 T01670021  RH  038%=      5-min Rain = 0
KCXS 171905Z 34013G19KT 17/02 A3011 RMK A01 T01680021  RH  038%=      5-min Rain = 0
KCXS 171910Z 34015KT 17/02 A3011 RMK A01 T01680020  RH  037%=      5-min Rain = 0
KCXS 171915Z 36013G19KT 17/02 A301 RMK A01 T01710020  RH  037%=      5-min Rain = 0
KCXS 171920Z 35014G19KT 17/02 A301 RMK A01 T01700018  RH  036%=      5-min Rain = 0
KCXS 171925Z 36015G21KT 17/01 A3009 RMK A01 T01700014  RH  035%=      5-min Rain = 0
KCXS 171930Z 36014G23KT 17/02 A3009 RMK A01 T01710015  RH  035%=      5-min Rain = 0
KCXS 171935Z 34015G20KT 17/02 A3009 RMK A01 T01690015  RH  036%=      5-min Rain = 0
KCXS 171940Z 00011G16KT 17/02 A3009 RMK A01 T01710015  RH  035%=      5-min Rain = 0
KCXS 171945Z 00014KT 17/01 A3008 RMK A01 T01740014  RH  035%=      5-min Rain = 0
KCXS 171950Z 35011G17KT 17/01 A3008 RMK A01 T01720014  RH  035%=      5-min Rain = 0
KCXS 171955Z 36012G18KT 17/01 A3007 RMK A01 T01740013  RH  034%=      5-min Rain = 0
KCXS 172000Z 35013G19KT 18/01 A3007 RMK A01 T01750012  RH  034%=      5-min Rain = 0
KCXS 172005Z 35012G17KT 17/01 A3007 RMK A01 T01740011  RH  034%=      5-min Rain = 0
KCXS 172010Z 01010KT 17/01 A3007 RMK A01 T01740010  RH  034%=      5-min Rain = 0
KCXS 172015Z 35009G17KT 18/01 A3006 RMK A01 T01750010  RH  033%=      5-min Rain = 0
KCXS 172020Z 35014KT 18/01 A3006 RMK A01 T01750008  RH  033%=      5-min Rain = 0
KCXS 172025Z 36009G14KT 17/01 A3006 RMK A01 T01730009  RH  033%=      5-min Rain = 0
KCXS 172030Z 01011KT 18/01 A3006 RMK A01 T01770008  RH  032%=      5-min Rain = 0
KCXS 172035Z 01009KT 18/01 A3006 RMK A01 T01760007  RH  032%=      5-min Rain = 0
KCXS 172040Z 36008G14KT 18/01 A3006 RMK A01 T01770005  RH  032%=      5-min Rain = 0
KCXS 172045Z 34011G16KT 18/01 A3006 RMK A01 T01750006  RH  032%=      5-min Rain = 0
KCXS 172050Z 35012KT 17/01 A3006 RMK A01 T01740005  RH  032%=      5-min Rain = 0
KCXS 172055Z 34011KT 17/01 A3006 RMK A01 T01740005  RH  032%=      5-min Rain = 0
KCXS 172100Z 35010KT 18/01 A3006 RMK A01 T01760006  RH  032%=      5-min Rain = 0
KCXS 172105Z 01010G15KT 18/00 A3006 RMK A01 T01770004  RH  032%=      5-min Rain = 0
KCXS 172110Z 35009KT 18/00 A3006 RMK A01 T01770004  RH  032%=      5-min Rain = 0
KCXS 172115Z 35010KT 17/01 A3005 RMK A01 T01740005  RH  032%=      5-min Rain = 0
KCXS 172120Z 01007KT 18/01 A3005 RMK A01 T01770006  RH  032%=      5-min Rain = 0
KCXS 172125Z 35009G15KT 18/00 A3005 RMK A01 T01770004  RH  032%=      5-min Rain = 0
KCXS 172130Z 35009G15KT 17/00 A3006 RMK A01 T01730004  RH  032%=      5-min Rain = 0
KCXS 172135Z 34009G14KT 17/00 A3006 RMK A01 T01730004  RH  032%=      5-min Rain = 0
KCXS 172140Z 35009KT 18/00 A3005 RMK A01 T01750003  RH  032%=      5-min Rain = 0
KCXS 172145Z 35010KT 17/00 A3005 RMK A01 T01730001  RH  032%=      5-min Rain = 0
KCXS 172150Z 35009KT 17/00 A3005 RMK A01 T01730003  RH  032%=      5-min Rain = 0
KCXS 172155Z 34010KT 17/00 A3005 RMK A01 T01720002  RH  032%=      5-min Rain = 0
KCXS 172200Z 00010KT 17/00 A3005 RMK A01 T01720002  RH  032%=      5-min Rain = 0
KCXS 172205Z 36008KT 17/00 A3005 RMK A01 T01720004  RH  033%=      5-min Rain = 0
KCXS 172210Z 01008KT 17/00 A3005 RMK A01 T01700004  RH  033%=      5-min Rain = 0
KCXS 172215Z 00007KT 17/00 A3005 RMK A01 T01710004  RH  033%=      5-min Rain = 0
KCXS 172220Z 33008KT 17/01 A3005 RMK A01 T01700005  RH  033%=      5-min Rain = 0
KCXS 172225Z 34007KT 17/01 A3005 RMK A01 T01680005  RH  033%=      5-min Rain = 0
KCXS 172230Z 35005KT 17/00 A3005 RMK A01 T01670003  RH  033%=      5-min Rain = 0
KCXS 172235Z 34008KT 17/00 A3005 RMK A01 T01670004  RH  033%=      5-min Rain = 0
KCXS 172240Z 36008KT 17/00 A3005 RMK A01 T01660004  RH  034%=      5-min Rain = 0
KCXS 172245Z 00008KT 16/00 A3005 RMK A01 T01640004  RH  034%=      5-min Rain = 0
KCXS 172250Z 35006KT 16/01 A3005 RMK A01 T01630005  RH  035%=      5-min Rain = 0
KCXS 172255Z 34004KT 16/01 A3005 RMK A01 T01620005  RH  035%=      5-min Rain = 0
KCXS 172300Z 35007KT 16/00 A3006 RMK A01 T01600004  RH  035%=      5-min Rain = 0
KCXS 172305Z 35007KT 16/00 A3006 RMK A01 T01580003  RH  035%=      5-min Rain = 0
KCXS 172310Z 35007KT 16/00 A3006 RMK A01 T01550003  RH  036%=      5-min Rain = 0
KCXS 172315Z 35006KT 15/00 A3006 RMK A01 T01520003  RH  037%=      5-min Rain = 0
KCXS 172320Z 35006KT 15/00 A3006 RMK A01 T01480003  RH  037%=      5-min Rain = 0
KCXS 172325Z 35004KT 14/00 A3006 RMK A01 T01430002  RH  038%=      5-min Rain = 0
KCXS 172330Z 35004KT 14/00 A3006 RMK A01 T01410002  RH  039%=      5-min Rain = 0
KCXS 172335Z 35004KT 14/00 A3006 RMK A01 T01410001  RH  039%=      5-min Rain = 0
KCXS 172340Z 35003KT 14/00 A3006 RMK A01 T01400001  RH  039%=      5-min Rain = 0
KCXS 172345Z 35002KT 14/00 A3007 RMK A01 T01400001  RH  039%=      5-min Rain = 0
KCXS 172350Z 36003KT 14/00 A3007 RMK A01 T01390001  RH  039%=      5-min Rain = 0
KCXS 172355Z 00003KT 14/00 A3007 RMK A01 T01410001  RH  039%=      5-min Rain = 0
KCXS 180000Z 00003KT 14/00 A3007 RMK A01 T01420001  RH  038%=      5-min Rain = 0
KCXS 180005Z 00003KT 14/00 A3007 RMK A01 T01420000  RH  038%=      5-min Rain = 0
KCXS 180010Z 36002KT 14/00 A3007 RMK A01 T01420000  RH  038%=      5-min Rain = 0
KCXS 180015Z 36002KT 14/00 A3007 RMK A01 T014100-0  RH  038%=      5-min Rain = 0
KCXS 180020Z 36003KT 14/00 A3007 RMK A01 T014100-0  RH  038%=      5-min Rain = 0
KCXS 180025Z 35002KT 14/00 A3007 RMK A01 T014200-0  RH  038%=      5-min Rain = 0
KCXS 180030Z 34002KT 14/00 A3007 RMK A01 T014100-0  RH  038%=      5-min Rain = 0
KCXS 180035Z 34002KT 14/00 A3007 RMK A01 T014000-0  RH  039%=      5-min Rain = 0
KCXS 180040Z 33001KT 14/00 A3007 RMK A01 T01400000  RH  039%=      5-min Rain = 0
KCXS 180045Z 32001KT 14/00 A3007 RMK A01 T01410000  RH  038%=      5-min Rain = 0
KCXS 180050Z 33001KT 14/00 A3007 RMK A01 T01410000  RH  038%=      5-min Rain = 0
KCXS 180055Z 33001KT 14/00 A3007 RMK A01 T01420001  RH  039%=      5-min Rain = 0
KCXS 180100Z 33001KT 14/00 A3007 RMK A01 T01410001  RH  039%=      5-min Rain = 0
KCXS 180105Z 34001KT 14/00 A3007 RMK A01 T01410000  RH  039%=      5-min Rain = 0
KCXS 180110Z 36001KT 14/00 A3007 RMK A01 T014000-0  RH  039%=      5-min Rain = 0
KCXS 180115Z 00001KT 14/M00 A3007 RMK A01 T01401001  RH  039%=      5-min Rain = 0
KCXS 180120Z 02001KT 14/M00 A3007 RMK A01 T01361001  RH  039%=      5-min Rain = 0
KCXS 180125Z 04002KT 14/M00 A3007 RMK A01 T01351001  RH  040%=      5-min Rain = 0
KCXS 180130Z 04002KT 14/M00 A3007 RMK A01 T01401001  RH  038%=      5-min Rain = 0
KCXS 180135Z 04002KT 14/M00 A3007 RMK A01 T01411002  RH  038%=      5-min Rain = 0
KCXS 180140Z 04002KT 14/M00 A3007 RMK A01 T01401002  RH  038%=      5-min Rain = 0
KCXS 180145Z 04002KT 14/M00 A3008 RMK A01 T01401002  RH  038%=      5-min Rain = 0
KCXS 180150Z 04001KT 14/M00 A3008 RMK A01 T01401002  RH  038%=      5-min Rain = 0
KCXS 180155Z 04001KT 14/M00 A3008 RMK A01 T01381002  RH  039%=      5-min Rain = 0
KCXS 180200Z 03002KT 14/M00 A3008 RMK A01 T01391002  RH  039%=      5-min Rain = 0
KCXS 180205Z 03002KT 14/M00 A3008 RMK A01 T01391001  RH  039%=      5-min Rain = 0
KCXS 180210Z 03002KT 14/M00 A3008 RMK A01 T01391001  RH  038%=      5-min Rain = 0
KCXS 180215Z 03001KT 14/M00 A3008 RMK A01 T01391002  RH  038%=      5-min Rain = 0
KCXS 180220Z 03001KT 14/M00 A3008 RMK A01 T01381002  RH  039%=      5-min Rain = 0
KCXS 180225Z 03001KT 14/M00 A3008 RMK A01 T01381002  RH  039%=      5-min Rain = 0
KCXS 180230Z 03001KT 14/M00 A3008 RMK A01 T01381001  RH  039%=      5-min Rain = 0
KCXS 180235Z 03001KT 14/M00 A3008 RMK A01 T01371001  RH  039%=      5-min Rain = 0
KCXS 180240Z 03001KT 14/M00 A3008 RMK A01 T01361001  RH  039%=      5-min Rain = 0
KCXS 180245Z 00000KT 13/M00 A3008 RMK A01 T01321002  RH  040%=      5-min Rain = 0
KCXS 180250Z 00000KT 13/M00 A3008 RMK A01 T01301002  RH  041%=      5-min Rain = 0
KCXS 180255Z 00000KT 13/M00 A3008 RMK A01 T01321001  RH  040%=      5-min Rain = 0
KCXS 180300Z 13002KT 13/M00 A3008 RMK A01 T01321001  RH  040%=      5-min Rain = 0
KCXS 180305Z 13002KT 13/M00 A3008 RMK A01 T01321001  RH  040%=      5-min Rain = 0
KCXS 180310Z 13002KT 13/M00 A3008 RMK A01 T01301002  RH  041%=      5-min Rain = 0
KCXS 180315Z 14002KT 13/M00 A3008 RMK A01 T01291001  RH  041%=      5-min Rain = 0
KCXS 180320Z 14002KT 13/M00 A3008 RMK A01 T01271001  RH  042%=      5-min Rain = 0
KCXS 180325Z 14001KT 13/M00 A3008 RMK A01 T01261002  RH  042%=      5-min Rain = 0
KCXS 180330Z 14001KT 13/M00 A3008 RMK A01 T01271001  RH  042%=      5-min Rain = 0
KCXS 180335Z 14001KT 13/M00 A3008 RMK A01 T01281001  RH  041%=      5-min Rain = 0
KCXS 180340Z 14001KT 13/M00 A3008 RMK A01 T01301002  RH  041%=      5-min Rain = 0
KCXS 180345Z 17001KT 13/M00 A3008 RMK A01 T01311002  RH  040%=      5-min Rain = 0
KCXS 180350Z 17002KT 13/M00 A3008 RMK A01 T01311001  RH  041%=      5-min Rain = 0
KCXS 180355Z 17002KT 13/M00 A3008 RMK A01 T01311001  RH  041%=      5-min Rain = 0
KCXS 180400Z 18002KT 13/M00 A3008 RMK A01 T01311001  RH  041%=      5-min Rain = 0
KCXS 180405Z 18002KT 13/M00 A3008 RMK A01 T01311002  RH  041%=      5-min Rain = 0
KCXS 180410Z 18002KT 13/M00 A3007 RMK A01 T01301002  RH  041%=      5-min Rain = 0
KCXS 180415Z 18003KT 13/M00 A3007 RMK A01 T01281002  RH  041%=      5-min Rain = 0
KCXS 180420Z 18003KT 13/M00 A3007 RMK A01 T01271002  RH  042%=      5-min Rain = 0
KCXS 180425Z 19003KT 13/M00 A3007 RMK A01 T01251002  RH  042%=      5-min Rain = 0
KCXS 180430Z 19004KT 12/M00 A3007 RMK A01 T01231003  RH  042%=      5-min Rain = 0
KCXS 180435Z 20005KT 12/M00 A3007 RMK A01 T01171003  RH  044%=      5-min Rain = 0
KCXS 180440Z 21006KT 11/M00 A3007 RMK A01 T01131003  RH  045%=      5-min Rain = 0
KCXS 180445Z 21006KT 11/M00 A3006 RMK A01 T01081003  RH  047%=      5-min Rain = 0
KCXS 180450Z 22007KT 10/M00 A3006 RMK A01 T01011002  RH  049%=      5-min Rain = 0
KCXS 180455Z 22007KT 10/00 A3006 RMK A01 T009600-0  RH  052%=      5-min Rain = 0
KCXS 180500Z 22007KT 10/00 A3006 RMK A01 T00960001  RH  052%=      5-min Rain = 0
KCXS 180505Z 21007KT 10/00 A3005 RMK A01 T00970002  RH  052%=      5-min Rain = 0
KCXS 180510Z 21007KT 10/00 A3005 RMK A01 T00950001  RH  052%=      5-min Rain = 0
KCXS 180515Z 21007KT 09/00 A3005 RMK A01 T00940001  RH  053%=      5-min Rain = 0
KCXS 180520Z 21007KT 10/00 A3004 RMK A01 T00960002  RH  053%=      5-min Rain = 0
KCXS 180525Z 22007KT 10/00 A3004 RMK A01 T00970002  RH  052%=      5-min Rain = 0
KCXS 180530Z 22007KT 10/00 A3004 RMK A01 T00950002  RH  053%=      5-min Rain = 0
KCXS 180535Z 22007KT 09/00 A3004 RMK A01 T00940002  RH  054%=      5-min Rain = 0
KCXS 180540Z 21007KT 09/00 A3003 RMK A01 T00920002  RH  054%=      5-min Rain = 0
KCXS 180545Z 21007KT 09/00 A3003 RMK A01 T00930003  RH  054%=      5-min Rain = 0
KCXS 180550Z 21008KT 10/00 A3003 RMK A01 T00960004  RH  053%=      5-min Rain = 0
KCXS 180555Z 21008KT 10/00 A3003 RMK A01 T00970003  RH  053%=      5-min Rain = 0

Page generated in 0.0094 seconds.